Time;durP1;ratioP1;P1;durP2;ratioP2;P2;SDS_P1;SDS_P2;PMS_P1;PMS_P2;Temp;Humidity;BMP_temperature;BMP_pressure;BME280_temperature;BME280_humidity;BME280_pressure;Samples;Min_cycle;Max_cycle;Signal;HPM_P1;HPM_P2
2022/08/04 00:00:06;;;;;;;2.05;1.60;;;;;;;25.41;44.31;100191.66;5081107;28;20150;-65
2022/08/04 00:02:46;;;;;;;4.53;1.77;;;;;;;25.37;44.43;100187.84;5083687;28;20085;-64
2022/08/04 00:06:06;;;;;;;2.55;1.80;;;;;;;25.31;44.84;100191.56;5085298;28;20502;-65
2022/08/04 00:08:41;;;;;;;4.00;1.52;;;;;;;25.25;44.74;100187.19;5068845;28;20064;-64
2022/08/04 00:11:08;;;;;;;2.28;1.60;;;;;;;25.20;44.81;100187.97;5065908;28;20048;-64
2022/08/04 00:13:38;;;;;;;1.98;1.58;;;;;;;25.15;45.20;100187.09;5084922;28;20257;-64
2022/08/04 00:16:06;;;;;;;2.53;1.73;;;;;;;25.13;45.15;100184.63;5063380;28;20073;-65
2022/08/04 00:18:46;;;;;;;2.58;1.83;;;;;;;25.10;45.50;100187.84;5093667;28;20050;-65
2022/08/04 00:21:14;;;;;;;3.00;2.03;;;;;;;25.08;45.36;100184.56;5113529;28;20027;-65
2022/08/04 00:23:42;;;;;;;1.73;1.42;;;;;;;25.01;45.66;100183.97;5086116;28;20190;-64
2022/08/04 00:26:08;;;;;;;3.22;1.80;;;;;;;24.93;45.59;100189.81;5077743;28;20072;-65
2022/08/04 00:28:39;;;;;;;2.08;1.63;;;;;;;24.87;46.79;100175.44;5083884;28;20757;-64
2022/08/04 00:31:08;;;;;;;4.13;1.70;;;;;;;24.88;46.23;100182.47;5081474;28;20048;-64
2022/08/04 00:33:36;;;;;;;2.85;1.85;;;;;;;24.88;46.20;100178.97;5082663;28;20060;-64
2022/08/04 00:36:02;;;;;;;3.35;1.95;;;;;;;24.85;46.36;100174.88;5082447;28;20127;-67
2022/08/04 00:38:28;;;;;;;2.40;1.52;;;;;;;24.83;46.31;100174.31;5080964;28;20119;-65
2022/08/04 00:40:59;;;;;;;3.03;1.98;;;;;;;24.80;46.28;100172.94;5080130;28;20036;-65
2022/08/04 00:43:50;;;;;;;2.22;1.77;;;;;;;24.78;46.23;100166.16;5081134;28;20040;-64
2022/08/04 00:46:46;;;;;;;3.63;1.70;;;;;;;24.75;46.50;100159.38;5090973;28;20126;-64
2022/08/04 00:49:39;;;;;;;2.35;1.70;;;;;;;24.75;46.35;100161.25;5077027;28;20286;-64
2022/08/04 00:52:27;;;;;;;2.22;1.67;;;;;;;24.71;46.37;100163.66;5076623;28;20047;-65
2022/08/04 00:55:05;;;;;;;1.95;1.40;;;;;;;24.65;46.87;100161.16;5083592;28;20024;-65
2022/08/04 00:57:42;;;;;;;3.55;1.70;;;;;;;24.66;46.46;100160.09;5076958;28;20044;-64
2022/08/04 01:00:11;;;;;;;2.40;1.80;;;;;;;24.73;46.27;100161.50;5083328;28;21437;-65
2022/08/04 01:02:41;;;;;;;2.45;1.70;;;;;;;24.75;46.45;100162.06;5081156;28;20028;-64
2022/08/04 01:05:43;;;;;;;3.67;1.90;;;;;;;24.78;46.26;100160.75;5080629;28;20036;-65
2022/08/04 01:08:28;;;;;;;2.45;1.80;;;;;;;24.78;46.31;100164.25;5075713;28;20501;-65
2022/08/04 01:11:14;;;;;;;3.42;1.83;;;;;;;24.81;46.01;100157.53;5080693;28;20404;-65
2022/08/04 01:13:42;;;;;;;2.65;1.60;;;;;;;24.85;45.77;100163.25;5081427;28;20056;-64
2022/08/04 01:16:12;;;;;;;2.53;1.60;;;;;;;24.90;45.66;100163.28;5060358;28;20565;-65
2022/08/04 01:18:58;;;;;;;2.00;1.50;;;;;;;24.90;45.63;100160.59;5105104;28;20058;-65
2022/08/04 01:21:49;;;;;;;2.30;1.73;;;;;;;24.88;45.54;100162.72;5075322;28;20040;-64
2022/08/04 01:24:59;;;;;;;3.05;1.77;;;;;;;24.89;45.65;100158.97;5083266;28;20040;-65
2022/08/04 01:28:01;;;;;;;2.63;1.60;;;;;;;24.90;45.42;100161.41;5076263;28;20041;-65
2022/08/04 01:30:31;;;;;;;2.33;1.58;;;;;;;24.92;45.02;100164.66;5083212;28;20051;-65
2022/08/04 01:33:17;;;;;;;2.22;1.77;;;;;;;24.96;44.97;100156.88;5074523;28;20035;-64
2022/08/04 01:35:45;;;;;;;1.55;1.33;;;;;;;25.01;44.87;100156.91;5076649;28;20524;-65
2022/08/04 01:38:24;;;;;;;2.40;1.50;;;;;;;25.07;44.76;100165.88;5073216;28;20048;-66
2022/08/04 01:40:56;;;;;;;1.83;1.40;;;;;;;24.99;44.78;100153.66;5089448;28;20101;-65
2022/08/04 01:43:22;;;;;;;2.20;1.40;;;;;;;24.91;45.03;100159.53;5079340;28;20722;-64
2022/08/04 01:45:50;;;;;;;2.17;1.45;;;;;;;24.82;45.17;100158.38;5079850;28;20036;-64
2022/08/04 01:48:17;;;;;;;1.60;1.27;;;;;;;24.73;45.32;100163.41;5076227;28;20040;-65
2022/08/04 01:50:43;;;;;;;3.55;1.20;;;;;;;24.63;45.47;100157.88;5074755;28;20040;-64
2022/08/04 01:53:09;;;;;;;3.45;1.67;;;;;;;24.54;46.13;100157.50;5080971;28;20043;-63
2022/08/04 01:55:36;;;;;;;1.92;1.45;;;;;;;24.44;46.74;100165.50;5077456;28;20028;-63
2022/08/04 01:58:04;;;;;;;2.25;1.73;;;;;;;24.30;47.68;100167.75;5089554;28;20367;-63
2022/08/04 02:00:29;;;;;;;3.25;1.83;;;;;;;24.17;48.30;100161.66;5084711;28;20040;-63
2022/08/04 02:02:55;;;;;;;2.58;1.80;;;;;;;24.05;48.93;100170.91;5078033;28;20040;-63
2022/08/04 02:05:24;;;;;;;2.28;1.77;;;;;;;23.95;48.95;100177.00;5082848;28;20032;-63
2022/08/04 02:07:55;;;;;;;4.35;2.40;;;;;;;23.83;49.44;100174.41;5079415;28;20158;-63
2022/08/04 02:10:34;;;;;;;3.10;2.10;;;;;;;23.73;49.84;100171.53;5059161;28;20052;-63
2022/08/04 02:13:28;;;;;;;3.03;2.10;;;;;;;23.66;49.76;100174.41;5076762;28;20029;-63
2022/08/04 02:16:15;;;;;;;2.83;1.90;;;;;;;23.60;49.88;100163.78;5072042;28;20122;-63
2022/08/04 02:19:02;;;;;;;3.67;1.90;;;;;;;23.57;49.82;100162.38;5083710;28;20079;-66
2022/08/04 02:21:30;;;;;;;2.42;1.70;;;;;;;23.53;50.05;100153.97;5075388;28;20117;-64
2022/08/04 02:24:13;;;;;;;3.60;1.80;;;;;;;23.52;50.11;100146.91;5079470;28;20024;-64
2022/08/04 02:26:41;;;;;;;2.28;1.60;;;;;;;23.45;50.24;100148.97;5084452;28;20077;-64
2022/08/04 02:29:15;;;;;;;2.72;1.80;;;;;;;23.34;50.59;100141.81;5078320;28;20508;-64
2022/08/04 02:31:50;;;;;;;2.63;1.80;;;;;;;23.21;50.83;100134.84;5082077;28;20050;-64
2022/08/04 02:34:24;;;;;;;3.22;1.80;;;;;;;23.12;51.46;100144.41;5079402;28;20127;-64
2022/08/04 02:36:51;;;;;;;2.15;1.60;;;;;;;23.02;51.71;100136.94;5076557;28;20318;-64
2022/08/04 02:39:19;;;;;;;2.35;1.80;;;;;;;22.94;52.26;100145.41;5077195;28;20059;-65
2022/08/04 02:41:47;;;;;;;3.17;1.90;;;;;;;22.85;52.47;100136.88;5085409;28;20037;-64
2022/08/04 02:44:15;;;;;;;2.33;1.70;;;;;;;22.81;52.61;100132.22;5080050;28;20037;-65
2022/08/04 02:46:41;;;;;;;2.55;1.90;;;;;;;22.77;52.63;100136.47;5080445;28;20120;-64
2022/08/04 02:49:08;;;;;;;2.03;1.60;;;;;;;22.75;52.42;100131.31;5072636;28;20444;-64
2022/08/04 02:51:38;;;;;;;2.45;1.52;;;;;;;22.73;52.24;100127.22;5080817;28;20040;-64
2022/08/04 02:54:06;;;;;;;1.70;1.30;;;;;;;22.71;52.18;100115.88;5071402;28;20041;-65
2022/08/04 02:56:33;;;;;;;2.10;1.50;;;;;;;22.70;52.35;100123.16;5081369;28;20035;-64
2022/08/04 02:59:10;;;;;;;2.13;1.20;;;;;;;22.67;52.07;100120.94;5081959;28;20420;-64
2022/08/04 03:01:37;;;;;;;1.60;1.25;;;;;;;22.68;51.57;100123.38;5081995;28;20035;-64
2022/08/04 03:04:23;;;;;;;2.28;1.40;;;;;;;22.66;52.02;100121.97;5084906;28;20079;-65
2022/08/04 03:07:28;;;;;;;1.33;1.13;;;;;;;22.65;51.66;100125.75;5082523;28;20090;-65
2022/08/04 03:10:23;;;;;;;2.00;1.50;;;;;;;22.63;51.92;100122.47;5081737;28;20036;-64
2022/08/04 03:13:21;;;;;;;1.73;1.23;;;;;;;22.60;52.20;100122.97;5064085;28;20139;-64
2022/08/04 03:15:58;;;;;;;1.80;1.40;;;;;;;22.55;52.17;100129.06;5084568;28;20496;-64
2022/08/04 03:18:45;;;;;;;3.67;1.48;;;;;;;22.51;52.51;100127.09;5081048;28;20530;-64
2022/08/04 03:21:44;;;;;;;2.90;1.20;;;;;;;22.48;52.60;100131.91;5084705;28;20101;-64
2022/08/04 03:24:37;;;;;;;1.90;1.10;;;;;;;22.44;52.20;100130.75;5082927;28;20293;-64
2022/08/04 03:27:11;;;;;;;2.90;1.40;;;;;;;22.41;52.47;100131.22;5082819;28;20473;-64
2022/08/04 03:29:54;;;;;;;2.10;1.50;;;;;;;22.37;52.64;100129.25;5083275;28;20025;-64
2022/08/04 03:32:22;;;;;;;2.03;1.40;;;;;;;22.33;52.73;100133.47;5059668;28;20052;-64
2022/08/04 03:35:06;;;;;;;2.20;1.35;;;;;;;22.27;53.05;100136.06;5083130;28;20396;-65
2022/08/04 03:38:02;;;;;;;1.60;1.40;;;;;;;22.21;54.20;100139.69;5081611;28;20047;-65
2022/08/04 03:40:39;;;;;;;1.55;1.30;;;;;;;22.14;54.08;100141.69;5085679;28;20093;-64
2022/08/04 03:43:10;;;;;;;1.90;1.40;;;;;;;22.08;54.22;100136.44;5087272;28;20069;-64
2022/08/04 03:46:06;;;;;;;1.90;1.40;;;;;;;22.04;54.47;100146.84;5087357;28;20040;-64
2022/08/04 03:49:12;;;;;;;3.03;2.15;;;;;;;22.08;54.83;100147.22;5075533;28;20530;-65
2022/08/04 03:54:55;;;;;;;2.70;1.90;;;;;;;21.99;56.12;100144.88;5086779;28;20237;-64
2022/08/04 03:57:33;;;;;;;3.17;2.00;;;;;;;21.92;55.83;100146.06;5078978;28;20290;-64
2022/08/04 04:00:09;;;;;;;1.90;1.50;;;;;;;21.91;55.27;100149.81;5078193;28;20065;-64
2022/08/04 04:02:54;;;;;;;2.38;1.50;;;;;;;21.90;55.60;100157.06;5083971;28;20036;-64
2022/08/04 04:05:30;;;;;;;2.65;1.60;;;;;;;21.89;55.15;100157.31;5088575;28;20044;-64
2022/08/04 04:08:17;;;;;;;2.28;1.70;;;;;;;21.85;55.26;100154.25;5075317;28;20044;-64
2022/08/04 04:10:55;;;;;;;2.45;1.75;;;;;;;21.85;54.82;100165.84;5082066;28;21598;-64
2022/08/04 04:13:51;;;;;;;2.45;1.88;;;;;;;21.83;55.46;100164.44;5082197;28;20108;-64
2022/08/04 04:16:22;;;;;;;2.25;1.80;;;;;;;21.77;55.32;100166.19;5086983;28;20043;-64
2022/08/04 04:19:26;;;;;;;2.08;1.63;;;;;;;21.71;56.17;100166.31;5083298;28;20101;-64
2022/08/04 04:21:56;;;;;;;2.60;1.85;;;;;;;21.67;55.92;100163.28;5058366;28;20040;-64
2022/08/04 04:25:01;;;;;;;3.10;2.17;;;;;;;21.60;57.03;100165.28;5083355;28;20567;-65
2022/08/04 04:28:09;;;;;;;2.58;2.00;;;;;;;21.58;56.97;100167.38;5082318;28;20039;-64
2022/08/04 04:30:54;;;;;;;2.58;1.80;;;;;;;21.58;56.42;100175.44;5085251;28;20497;-64
2022/08/04 04:33:44;;;;;;;2.67;2.00;;;;;;;21.57;56.89;100173.78;5085910;28;20453;-64
2022/08/04 04:36:43;;;;;;;4.03;2.55;;;;;;;21.54;57.63;100182.34;5079060;28;20033;-65
2022/08/04 04:39:19;;;;;;;3.03;2.25;;;;;;;21.55;57.45;100184.00;5084278;28;20128;-64
2022/08/04 04:42:02;;;;;;;2.97;2.05;;;;;;;21.58;57.28;100180.81;5085273;28;20083;-64
2022/08/04 04:45:02;;;;;;;3.30;2.33;;;;;;;21.58;57.50;100175.44;5082040;28;20072;-64
2022/08/04 04:47:41;;;;;;;4.43;2.30;;;;;;;21.62;57.77;100179.31;5078930;28;20606;-64
2022/08/04 04:50:49;;;;;;;3.08;2.40;;;;;;;21.62;57.84;100172.06;5081564;28;20044;-65
2022/08/04 04:53:20;;;;;;;4.25;2.40;;;;;;;21.68;57.76;100181.06;5083280;28;20421;-64
2022/08/04 04:56:24;;;;;;;2.83;2.00;;;;;;;21.71;58.03;100175.19;5077581;28;20044;-64
2022/08/04 04:58:53;;;;;;;3.00;2.22;;;;;;;21.76;57.90;100179.88;5025843;28;20122;-65
2022/08/04 05:01:59;;;;;;;3.47;1.92;;;;;;;21.81;57.90;100180.84;5083585;28;20118;-64
2022/08/04 05:05:07;;;;;;;2.38;1.95;;;;;;;21.88;57.89;100178.03;5093464;28;20036;-64
2022/08/04 05:07:39;;;;;;;2.50;2.08;;;;;;;21.94;58.30;100181.66;5080384;28;20115;-65
2022/08/04 05:10:16;;;;;;;2.40;2.00;;;;;;;21.98;58.15;100172.06;5075411;28;20040;-64
2022/08/04 05:13:11;;;;;;;2.75;2.25;;;;;;;22.07;58.46;100184.06;5110551;28;20502;-64
2022/08/04 05:15:41;;;;;;;3.17;2.45;;;;;;;22.14;59.09;100184.75;5084717;28;20040;-64
2022/08/04 05:18:11;;;;;;;3.22;2.40;;;;;;;22.22;58.53;100187.16;5069196;28;20036;-64
2022/08/04 05:20:42;;;;;;;3.80;2.42;;;;;;;22.35;58.94;100185.25;5086493;28;20248;-64
2022/08/04 05:23:18;;;;;;;4.45;2.45;;;;;;;22.48;58.51;100193.06;5085836;28;20040;-65
2022/08/04 05:25:50;;;;;;;3.60;2.40;;;;;;;22.64;57.83;100194.16;5087069;28;20036;-65
2022/08/04 05:28:19;;;;;;;2.70;2.30;;;;;;;22.82;57.58;100193.19;5091663;28;20039;-65
2022/08/04 05:31:01;;;;;;;2.92;2.10;;;;;;;23.13;57.05;100193.78;5097438;28;20032;-64
2022/08/04 05:33:36;;;;;;;3.38;2.22;;;;;;;23.58;56.39;100192.91;5082913;28;20306;-65
2022/08/04 05:36:06;;;;;;;2.22;1.85;;;;;;;24.11;55.59;100195.06;5069084;28;20036;-69
2022/08/04 05:38:38;;;;;;;2.10;1.77;;;;;;;24.64;54.74;100194.66;5079017;28;20028;-65
2022/08/04 05:41:06;;;;;;;2.15;1.63;;;;;;;25.10;53.85;100198.69;5079595;28;20032;-65
2022/08/04 05:43:32;;;;;;;2.13;1.60;;;;;;;25.54;53.06;100198.53;5080729;28;20223;-65
2022/08/04 05:45:59;;;;;;;1.95;1.60;;;;;;;25.99;52.05;100194.53;5076451;28;20040;-65
2022/08/04 05:48:26;;;;;;;2.65;1.83;;;;;;;26.42;50.26;100205.31;5080403;28;20043;-65
2022/08/04 05:50:52;;;;;;;3.53;2.22;;;;;;;26.84;49.50;100191.66;5090478;28;20095;-65
2022/08/04 05:53:18;;;;;;;4.32;1.90;;;;;;;27.18;48.95;100199.28;5089391;28;20127;-65
2022/08/04 05:55:47;;;;;;;2.30;1.50;;;;;;;27.51;48.36;100206.13;5089433;28;20048;-65
2022/08/04 05:58:15;;;;;;;2.85;2.00;;;;;;;27.84;48.16;100209.38;5083201;28;20469;-66
2022/08/04 06:00:42;;;;;;;3.00;2.13;;;;;;;28.21;46.78;100204.66;5069677;28;20032;-65
2022/08/04 06:03:10;;;;;;;4.00;1.83;;;;;;;28.56;45.89;100207.28;5074589;28;20122;-65
2022/08/04 06:05:35;;;;;;;2.60;1.88;;;;;;;28.90;45.32;100209.25;5086231;28;20404;-65
2022/08/04 06:08:02;;;;;;;2.13;1.60;;;;;;;29.30;44.99;100201.94;5069006;28;20041;-65
2022/08/04 06:10:30;;;;;;;2.45;1.63;;;;;;;29.73;44.37;100202.13;5069875;28;20515;-65
2022/08/04 06:13:05;;;;;;;1.90;1.48;;;;;;;30.18;43.41;100200.00;5089912;28;20115;-64
2022/08/04 06:15:34;;;;;;;3.13;1.63;;;;;;;30.58;42.64;100197.06;5087297;28;20090;-65
2022/08/04 06:18:01;;;;;;;2.20;1.50;;;;;;;30.97;42.00;100201.50;5085141;28;20028;-65
2022/08/04 06:20:31;;;;;;;2.88;1.92;;;;;;;31.33;41.30;100197.06;5068177;28;20033;-66
2022/08/04 06:23:00;;;;;;;2.70;1.50;;;;;;;31.60;40.85;100192.81;5072267;28;20032;-66
2022/08/04 06:25:32;;;;;;;2.80;1.50;;;;;;;31.87;40.44;100197.53;5088748;28;20191;-66
2022/08/04 06:28:00;;;;;;;2.80;1.63;;;;;;;32.12;39.36;100203.63;5085297;28;20052;-66
2022/08/04 06:30:28;;;;;;;3.42;1.83;;;;;;;32.17;39.63;100198.88;5067839;28;20036;-66
2022/08/04 06:32:59;;;;;;;2.38;1.25;;;;;;;32.29;39.45;100209.31;5052386;28;20036;-66
2022/08/04 06:35:27;;;;;;;3.17;1.67;;;;;;;32.44;39.07;100204.63;5088756;28;20040;-66
2022/08/04 06:37:54;;;;;;;2.20;1.27;;;;;;;32.72;38.63;100208.97;5087423;28;20030;-66
2022/08/04 06:40:22;;;;;;;3.20;1.67;;;;;;;32.93;38.65;100205.78;5067454;28;20028;-66
2022/08/04 06:42:49;;;;;;;3.95;1.52;;;;;;;33.14;37.73;100206.13;5074805;28;20123;-66
2022/08/04 06:45:15;;;;;;;6.78;2.03;;;;;;;33.37;36.10;100207.75;5088695;28;20038;-66
2022/08/04 06:47:42;;;;;;;3.40;1.88;;;;;;;33.62;36.08;100206.31;5088213;28;20036;-66
2022/08/04 06:50:09;;;;;;;3.35;1.88;;;;;;;33.77;35.63;100207.81;5088115;28;20032;-67
2022/08/04 06:52:35;;;;;;;3.30;1.80;;;;;;;34.05;35.66;100213.91;5080083;28;20497;-66
2022/08/04 06:55:02;;;;;;;5.82;2.13;;;;;;;34.26;33.94;100216.94;5068219;28;20051;-66
2022/08/04 06:57:29;;;;;;;4.45;2.28;;;;;;;34.39;32.93;100220.66;5075590;28;20063;-66
2022/08/04 07:00:08;;;;;;;5.00;2.50;;;;;;;34.34;32.21;100226.31;5070566;28;20081;-66
2022/08/04 07:02:39;;;;;;;4.95;2.55;;;;;;;34.23;30.68;100223.06;5078930;28;20043;-66
2022/08/04 07:05:06;;;;;;;4.20;2.40;;;;;;;34.22;31.71;100220.63;5103664;28;20419;-66
2022/08/04 07:07:32;;;;;;;3.95;2.05;;;;;;;34.32;31.61;100223.06;5094106;28;20122;-66
2022/08/04 07:09:59;;;;;;;3.20;2.10;;;;;;;34.34;31.64;100218.06;5088297;28;20119;-66
2022/08/04 07:12:25;;;;;;;4.78;2.22;;;;;;;34.50;31.58;100214.91;5087341;28;20098;-66
2022/08/04 07:14:50;;;;;;;3.45;2.08;;;;;;;34.71;31.87;100210.44;5078049;28;20512;-66
2022/08/04 07:17:17;;;;;;;3.47;1.90;;;;;;;34.72;31.73;100213.97;5087781;28;20114;-66
2022/08/04 07:19:43;;;;;;;4.82;2.10;;;;;;;34.84;31.76;100209.44;5085491;28;20470;-66
2022/08/04 07:22:09;;;;;;;3.95;2.05;;;;;;;35.07;31.83;100209.31;5080558;28;20065;-67
2022/08/04 07:24:36;;;;;;;4.82;2.00;;;;;;;35.46;31.56;100216.53;5068202;28;20036;-66
2022/08/04 07:27:03;;;;;;;4.07;2.08;;;;;;;35.75;31.24;100211.47;5054738;28;20036;-66
2022/08/04 07:29:28;;;;;;;4.65;2.17;;;;;;;35.95;30.85;100221.78;5087863;28;20131;-66
2022/08/04 07:31:56;;;;;;;5.63;1.90;;;;;;;36.17;30.64;100212.47;5084594;28;20119;-66
2022/08/04 07:34:22;;;;;;;4.03;2.08;;;;;;;36.40;30.15;100221.25;5084396;28;20295;-66
2022/08/04 07:36:49;;;;;;;2.83;1.70;;;;;;;36.55;30.02;100214.34;5085606;28;20028;-66
2022/08/04 07:39:15;;;;;;;3.40;1.80;;;;;;;36.51;29.96;100208.69;5071393;28;20028;-66
2022/08/04 07:41:42;;;;;;;3.72;1.80;;;;;;;36.61;29.69;100218.53;5090832;28;20545;-66
2022/08/04 07:44:08;;;;;;;5.35;1.58;;;;;;;36.80;29.22;100212.56;5091161;28;20047;-66
2022/08/04 07:46:35;;;;;;;2.67;1.70;;;;;;;37.06;28.90;100222.59;5073376;28;20082;-66
2022/08/04 07:49:01;;;;;;;3.20;1.75;;;;;;;37.40;28.32;100215.94;5090178;28;20412;-64
2022/08/04 07:51:27;;;;;;;2.58;1.70;;;;;;;37.72;27.45;100216.28;5090485;28;20035;-66
2022/08/04 07:53:54;;;;;;;2.10;1.48;;;;;;;37.87;27.66;100214.78;5083138;28;20043;-66
2022/08/04 07:56:20;;;;;;;3.92;1.60;;;;;;;38.19;27.21;100216.66;5095181;28;20036;-66
2022/08/04 07:58:45;;;;;;;2.58;1.90;;;;;;;38.35;26.37;100211.22;5098146;28;20046;-66
2022/08/04 08:01:12;;;;;;;4.43;1.80;;;;;;;38.50;26.58;100217.22;5098713;28;20109;-66
2022/08/04 08:03:39;;;;;;;2.72;1.60;;;;;;;38.78;25.87;100217.28;5072883;28;20032;-66
2022/08/04 08:06:05;;;;;;;2.72;1.67;;;;;;;39.14;25.77;100212.78;5082409;28;20068;-66
2022/08/04 08:08:30;;;;;;;3.42;1.67;;;;;;;39.26;25.28;100213.56;5071930;28;20080;-66
2022/08/04 08:10:56;;;;;;;3.50;1.63;;;;;;;39.41;25.29;100212.00;5091058;28;20081;-66
2022/08/04 08:13:23;;;;;;;2.03;1.40;;;;;;;39.45;25.34;100207.38;5091764;28;20433;-66
2022/08/04 08:15:48;;;;;;;3.35;1.80;;;;;;;39.27;24.75;100203.28;5082771;28;20020;-66
2022/08/04 08:18:14;;;;;;;3.67;1.67;;;;;;;39.65;25.00;100205.50;5093664;28;20065;-66
2022/08/04 08:20:44;;;;;;;2.90;1.60;;;;;;;40.01;24.50;100203.63;5067809;28;20044;-66
2022/08/04 08:23:10;;;;;;;3.05;1.80;;;;;;;40.21;24.28;100206.47;5082195;28;20126;-66
2022/08/04 08:25:35;;;;;;;3.92;1.80;;;;;;;40.46;23.60;100204.28;5099841;28;20115;-66
2022/08/04 08:28:03;;;;;;;3.47;1.83;;;;;;;40.77;23.12;100208.94;5089083;28;20411;-66
2022/08/04 08:30:28;;;;;;;3.63;1.80;;;;;;;41.22;22.97;100204.72;5090776;28;20032;-66
2022/08/04 08:32:54;;;;;;;4.32;1.80;;;;;;;41.59;22.29;100205.00;5095438;28;20514;-66
2022/08/04 08:35:24;;;;;;;4.63;1.60;;;;;;;41.96;22.29;100198.91;5094020;28;20467;-66
2022/08/04 08:37:55;;;;;;;;;;;;;;;42.40;21.18;100198.34;5104358;28;20325;-66
2022/08/04 08:40:32;;;;;;;2.20;1.50;;;;;;;42.69;19.87;100189.59;5096234;28;19950;-66
2022/08/04 08:43:32;;;;;;;3.55;1.50;;;;;;;42.93;19.06;100196.66;5106899;28;20056;-66
2022/08/04 08:46:34;;;;;;;3.58;1.48;;;;;;;42.95;19.35;100191.53;5094684;28;20054;-66
2022/08/04 08:49:08;;;;;;;4.97;1.50;;;;;;;43.15;18.86;100189.38;5097191;28;20066;-66
2022/08/04 08:51:48;;;;;;;2.25;1.30;;;;;;;43.29;18.46;100192.31;5110782;28;20088;-66
2022/08/04 08:54:30;;;;;;;1.90;1.10;;;;;;;43.65;18.97;100184.31;5095855;28;20511;-67
2022/08/04 08:57:18;;;;;;;1.92;1.30;;;;;;;44.14;18.63;100187.88;5096380;28;20035;-66
2022/08/04 09:00:11;;;;;;;2.35;1.20;;;;;;;44.55;17.96;100193.28;5111190;28;20063;-66
2022/08/04 09:02:58;;;;;;;2.97;1.20;;;;;;;44.56;17.12;100192.09;5063251;28;20036;-66
2022/08/04 09:05:54;;;;;;;3.10;1.40;;;;;;;44.80;16.78;100194.22;5099214;28;20699;-66
2022/08/04 09:08:48;;;;;;;2.72;1.27;;;;;;;44.55;16.69;100194.06;5071259;28;20028;-66
2022/08/04 09:11:27;;;;;;;2.97;1.30;;;;;;;44.59;16.98;100199.69;5075134;28;20062;-66
2022/08/04 09:14:14;;;;;;;2.38;1.30;;;;;;;44.86;16.13;100191.81;5085600;28;20051;-66
2022/08/04 09:16:59;;;;;;;2.85;1.38;;;;;;;44.93;16.20;100197.44;5089374;28;20047;-66
2022/08/04 09:19:25;;;;;;;2.50;1.20;;;;;;;45.06;16.09;100197.88;5088395;28;20040;-66
2022/08/04 09:21:59;;;;;;;3.20;1.38;;;;;;;45.00;16.48;100191.06;5097813;28;20047;-66
2022/08/04 09:24:34;;;;;;;2.97;1.20;;;;;;;45.56;16.36;100207.13;5096080;28;20585;-66
2022/08/04 09:27:01;;;;;;;2.22;1.35;;;;;;;45.96;16.60;100204.38;5090154;28;20499;-66
2022/08/04 09:29:36;;;;;;;3.00;1.30;;;;;;;46.30;15.69;100206.69;5079648;28;20041;-66
2022/08/04 09:32:20;;;;;;;4.10;1.55;;;;;;;46.42;15.51;100202.69;5097653;28;20043;-68
2022/08/04 09:35:06;;;;;;;3.97;1.50;;;;;;;46.42;14.90;100197.91;5090946;28;20036;-66
2022/08/04 09:37:53;;;;;;;4.00;1.50;;;;;;;46.15;15.37;100197.53;5094616;28;20253;-66
2022/08/04 09:40:25;;;;;;;2.00;1.42;;;;;;;46.44;15.56;100203.88;5081037;28;20138;-67
2022/08/04 09:43:14;;;;;;;2.67;1.58;;;;;;;46.76;15.44;100200.97;5071788;28;20054;-67
2022/08/04 09:46:03;;;;;;;2.90;1.40;;;;;;;46.46;14.88;100201.47;5097486;28;20089;-67
2022/08/04 09:48:44;;;;;;;3.03;1.70;;;;;;;46.50;15.02;100196.66;5090116;28;20035;-66
2022/08/04 09:51:49;;;;;;;5.50;1.73;;;;;;;46.46;14.96;100195.88;5097397;28;20032;-66
2022/08/04 09:55:01;;;;;;;5.40;1.50;;;;;;;46.65;14.89;100197.41;5091465;28;20032;-67
2022/08/04 09:57:38;;;;;;;4.47;1.60;;;;;;;46.57;15.08;100196.63;5092561;28;20035;-66
2022/08/04 10:00:07;;;;;;;4.20;1.55;;;;;;;46.28;15.23;100189.53;5094517;28;20153;-67
2022/08/04 10:02:46;;;;;;;2.45;1.40;;;;;;;46.57;14.95;100190.25;5088961;28;20027;-66
2022/08/04 10:05:24;;;;;;;2.77;1.60;;;;;;;46.81;14.91;100186.53;5089720;28;20132;-66
2022/08/04 10:08:16;;;;;;;1.98;1.40;;;;;;;47.09;15.21;100181.19;5089256;28;20036;-66
2022/08/04 10:11:02;;;;;;;2.78;1.45;;;;;;;47.68;14.21;100177.56;5089349;28;20036;-66
2022/08/04 10:14:17;;;;;;;3.15;1.30;;;;;;;48.23;13.78;100185.88;5088830;28;20116;-66
2022/08/04 10:17:27;;;;;;;2.55;1.15;;;;;;;48.82;13.70;100116.56;5052605;28;20027;-67
2022/08/04 10:20:06;;;;;;;2.05;1.20;;;;;;;49.85;13.34;100108.44;5109422;28;20160;-67
2022/08/04 10:23:07;;;;;;;1.90;1.20;;;;;;;50.17;12.35;100106.22;5109053;28;20023;-66
2022/08/04 10:26:10;;;;;;;2.63;1.30;;;;;;;49.97;12.64;100109.81;5100459;28;20031;-67
2022/08/04 10:28:43;;;;;;;2.30;1.50;;;;;;;50.20;12.14;100111.75;5109299;28;20539;-67
2022/08/04 10:31:16;;;;;;;2.85;1.40;;;;;;;50.28;12.61;100101.97;5109955;28;20054;-67
2022/08/04 10:33:50;;;;;;;2.95;1.15;;;;;;;50.99;12.16;100110.81;5109820;28;20519;-67
2022/08/04 10:36:20;;;;;;;3.47;1.33;;;;;;;50.84;11.80;100097.53;5108694;28;20035;-67
2022/08/04 10:38:55;;;;;;;3.92;1.55;;;;;;;50.81;12.07;100113.28;5109508;28;20079;-67
2022/08/04 10:41:39;;;;;;;2.10;1.35;;;;;;;50.67;11.94;100116.41;5069168;28;20124;-67
2022/08/04 10:44:13;;;;;;;2.08;1.38;;;;;;;50.87;11.71;100096.63;5082913;28;20033;-67
2022/08/04 10:46:45;;;;;;;2.85;1.30;;;;;;;51.02;11.63;100131.69;5088953;28;20035;-65
2022/08/04 10:49:32;;;;;;;2.35;1.10;;;;;;;51.28;11.79;100098.84;5088847;28;20042;-65
2022/08/04 10:52:03;;;;;;;2.10;1.20;;;;;;;51.68;11.04;100078.84;5071143;28;20115;-66
2022/08/04 10:54:48;;;;;;;2.55;1.30;;;;;;;51.95;10.80;100083.38;5058290;28;20032;-66
2022/08/04 10:57:22;;;;;;;1.73;1.05;;;;;;;52.18;10.62;100091.59;5081613;28;20039;-64
2022/08/04 11:00:29;;;;;;;1.85;1.17;;;;;;;52.40;10.41;100091.72;5091948;28;20055;-66
2022/08/04 11:03:22;;;;;;;1.85;1.10;;;;;;;52.54;10.51;100090.50;5057624;28;20037;-65
2022/08/04 11:05:52;;;;;;;2.78;1.35;;;;;;;52.66;10.29;100088.91;5073245;28;20115;-66
2022/08/04 11:08:26;;;;;;;2.50;1.13;;;;;;;53.31;10.02;100078.31;5085198;28;20055;-67
2022/08/04 11:11:01;;;;;;;2.42;1.20;;;;;;;54.09;9.54;100078.31;5109847;28;20043;-66
2022/08/04 11:13:34;;;;;;;1.13;0.90;;;;;;;54.37;9.29;100071.97;5108854;28;20039;-67
2022/08/04 11:16:04;;;;;;;1.38;1.10;;;;;;;53.03;9.99;100134.53;5087615;28;20032;-66
2022/08/04 11:18:32;;;;;;;1.88;1.17;;;;;;;53.08;9.94;100138.84;5091847;28;20043;-66
2022/08/04 11:21:10;;;;;;;1.60;1.20;;;;;;;53.64;9.75;100078.75;5091125;28;20045;-66
2022/08/04 11:23:42;;;;;;;2.97;1.00;;;;;;;53.91;9.20;100075.34;5089764;28;20458;-67
2022/08/04 11:26:46;;;;;;;2.60;1.10;;;;;;;54.49;8.51;100148.31;5084680;28;20514;-67
2022/08/04 11:29:21;;;;;;;1.92;1.15;;;;;;;54.79;8.58;100154.47;5069812;28;20074;-66
2022/08/04 11:31:48;;;;;;;2.33;1.20;;;;;;;54.87;8.90;100147.22;5088373;28;20533;-66
2022/08/04 11:34:19;;;;;;;1.90;1.10;;;;;;;55.06;8.38;100150.16;5092372;28;20119;-66
2022/08/04 11:36:59;;;;;;;2.55;1.63;;;;;;;55.23;8.55;100150.66;5092698;28;20032;-66
2022/08/04 11:39:33;;;;;;;3.28;1.20;;;;;;;54.84;8.40;100141.72;5092713;28;20149;-66
2022/08/04 11:42:18;;;;;;;1.45;0.95;;;;;;;54.96;7.76;100140.81;5093499;28;20105;-66
2022/08/04 11:45:01;;;;;;;1.42;1.02;;;;;;;55.02;8.03;100140.97;5092224;28;20077;-66
2022/08/04 11:47:38;;;;;;;1.95;1.00;;;;;;;55.21;7.90;100077.44;5094652;28;20109;-66
2022/08/04 11:50:13;;;;;;;2.55;0.90;;;;;;;55.36;7.57;100080.47;5095004;28;20448;-66
2022/08/04 11:52:41;;;;;;;2.40;0.93;;;;;;;54.74;8.13;100101.25;5076866;28;20032;-66
2022/08/04 11:55:10;;;;;;;2.08;1.00;;;;;;;54.72;7.44;100081.91;5092338;28;20119;-66
2022/08/04 11:57:36;;;;;;;4.10;0.80;;;;;;;54.64;7.46;100076.97;5092251;28;20137;-66
2022/08/04 12:00:05;;;;;;;1.77;0.90;;;;;;;54.71;7.53;100071.84;5091960;28;20406;-66
2022/08/04 12:02:48;;;;;;;2.35;0.90;;;;;;;55.06;7.17;100067.97;5092382;28;20028;-66
2022/08/04 12:05:18;;;;;;;1.35;0.85;;;;;;;54.72;7.58;100073.41;5092643;28;20044;-66
2022/08/04 12:07:54;;;;;;;1.60;0.85;;;;;;;54.51;7.39;100063.72;5092460;28;20032;-66
2022/08/04 12:10:34;;;;;;;1.67;0.82;;;;;;;54.65;7.76;100053.84;5092000;28;20040;-66
2022/08/04 12:13:21;;;;;;;1.65;0.98;;;;;;;54.74;7.40;100067.28;5092542;28;20081;-65